createdAt,value
2023-03-06T00:00:38.439Z,74.52
2023-03-06T00:01:25.277Z,74.56
2023-03-06T00:02:12.280Z,74.79
2023-03-06T00:02:59.331Z,74.90
2023-03-06T00:03:46.364Z,74.90
2023-03-06T00:04:33.314Z,74.79
2023-03-06T00:05:20.363Z,74.85
2023-03-06T00:06:07.717Z,75.06
2023-03-06T00:06:54.992Z,75.31
2023-03-06T00:07:42.612Z,75.18
2023-03-06T00:08:29.965Z,75.47
2023-03-06T00:09:16.940Z,75.72
2023-03-06T00:10:04.346Z,75.82
2023-03-06T00:10:52.379Z,75.91
2023-03-06T00:11:39.332Z,75.70
2023-03-06T00:12:27.921Z,75.80
2023-03-06T00:13:16.645Z,75.64
2023-03-06T00:14:03.701Z,76.42
2023-03-06T00:14:50.668Z,76.42
2023-03-06T00:15:37.679Z,76.11
2023-03-06T00:16:25.175Z,75.84
2023-03-06T00:17:12.272Z,75.88
2023-03-06T00:17:59.841Z,76.46
2023-03-06T00:18:48.030Z,76.74
2023-03-06T00:19:35.120Z,77.52
2023-03-06T00:20:23.165Z,78.01
2023-03-06T00:21:10.271Z,78.00
2023-03-06T00:21:57.572Z,77.43
2023-03-06T00:22:45.849Z,77.35
2023-03-06T00:23:32.945Z,77.52
2023-03-06T00:24:20.127Z,77.35
2023-03-06T00:25:08.580Z,76.85
2023-03-06T00:25:55.620Z,76.72
2023-03-06T00:26:43.461Z,76.81
2023-03-06T00:27:31.534Z,77.53
2023-03-06T00:28:18.560Z,77.52
2023-03-06T00:29:05.807Z,76.89
2023-03-06T00:29:56.892Z,77.22
2023-03-06T00:30:44.801Z,77.16
2023-03-06T00:31:31.849Z,76.80
2023-03-06T00:32:18.871Z,77.10
2023-03-06T00:33:06.049Z,76.97
2023-03-06T00:33:53.098Z,77.03
2023-03-06T00:34:40.165Z,76.95
2023-03-06T00:35:27.219Z,77.03
2023-03-06T00:36:14.241Z,77.33
2023-03-06T00:37:01.297Z,77.43
2023-03-06T00:37:48.565Z,77.41
2023-03-06T00:38:37.440Z,77.21
2023-03-06T00:39:24.667Z,77.58
2023-03-06T00:40:14.955Z,76.99
2023-03-06T00:41:12.494Z,76.39
2023-03-06T00:41:59.516Z,76.22
2023-03-06T00:42:46.969Z,76.03
2023-03-06T00:43:33.966Z,76.11
2023-03-06T00:44:21.046Z,75.86
2023-03-06T00:45:09.254Z,75.69
2023-03-06T00:45:56.366Z,76.22
2023-03-06T00:46:43.604Z,76.42
2023-03-06T00:47:30.594Z,76.83
2023-03-06T00:48:17.597Z,76.83
2023-03-06T00:49:04.614Z,76.64
2023-03-06T00:49:51.709Z,77.20
2023-03-06T00:50:38.710Z,76.95
2023-03-06T00:51:25.804Z,76.76
2023-03-06T00:52:13.677Z,76.64
2023-03-06T00:53:00.698Z,76.61
2023-03-06T00:53:48.318Z,76.07
2023-03-06T00:54:35.334Z,76.45
2023-03-06T00:55:22.410Z,76.42
2023-03-06T00:56:09.491Z,75.16
2023-03-06T00:56:56.644Z,75.32
2023-03-06T00:57:43.703Z,75.67
2023-03-06T00:58:30.642Z,75.83
2023-03-06T00:59:17.651Z,75.42
2023-03-06T01:00:06.128Z,76.02
2023-03-06T01:00:53.677Z,76.24
2023-03-06T01:01:40.794Z,76.05
2023-03-06T01:02:28.041Z,76.68
2023-03-06T01:03:15.108Z,76.83
2023-03-06T01:04:02.197Z,76.76
2023-03-06T01:04:49.207Z,76.50
2023-03-06T01:05:37.868Z,76.64
2023-03-06T01:06:25.040Z,76.48
2023-03-06T01:07:12.148Z,76.42
2023-03-06T01:07:59.196Z,76.69
2023-03-06T01:08:46.426Z,76.89
2023-03-06T01:09:33.356Z,76.82
2023-03-06T01:10:20.738Z,77.26
2023-03-06T01:11:07.673Z,77.66
2023-03-06T01:11:54.804Z,78.18
2023-03-06T01:12:41.846Z,78.66
2023-03-06T01:13:29.052Z,78.96
2023-03-06T01:14:16.072Z,78.92
2023-03-06T01:15:03.569Z,79.16
2023-03-06T01:15:50.624Z,78.25
2023-03-06T01:16:37.611Z,77.74
2023-03-06T01:17:24.655Z,77.35
2023-03-06T01:18:11.729Z,77.14
2023-03-06T01:18:58.983Z,76.93
2023-03-06T01:19:46.094Z,77.21
2023-03-06T01:20:33.111Z,77.02
2023-03-06T01:21:20.341Z,76.94
2023-03-06T01:22:07.366Z,77.27
2023-03-06T01:22:55.807Z,77.08
2023-03-06T01:23:43.256Z,76.66
2023-03-06T01:24:30.198Z,76.60
2023-03-06T01:25:17.398Z,75.90
2023-03-06T01:26:04.791Z,75.33
2023-03-06T01:26:52.072Z,75.03
2023-03-06T01:27:39.091Z,74.87
2023-03-06T01:28:26.148Z,75.84
2023-03-06T01:29:13.149Z,76.15
2023-03-06T01:30:00.317Z,75.99
2023-03-06T01:30:47.329Z,75.54
2023-03-06T01:31:34.419Z,75.39
2023-03-06T01:32:22.265Z,75.57
2023-03-06T01:33:09.380Z,76.16
2023-03-06T01:33:56.319Z,76.74
2023-03-06T01:34:43.357Z,76.81
2023-03-06T01:35:30.353Z,77.13
2023-03-06T01:36:17.433Z,77.11
2023-03-06T01:37:04.412Z,76.91
2023-03-06T01:37:51.453Z,77.18
2023-03-06T01:38:38.887Z,77.26
2023-03-06T01:39:25.918Z,76.56
2023-03-06T01:40:13.614Z,75.03
2023-03-06T01:41:01.681Z,75.04
2023-03-06T01:41:48.691Z,76.52
2023-03-06T01:42:35.748Z,77.00
2023-03-06T01:43:28.167Z,75.26
2023-03-06T01:44:15.459Z,75.47
2023-03-06T01:45:13.201Z,76.88
2023-03-06T01:46:39.074Z,76.76
2023-03-06T01:47:26.205Z,75.79
2023-03-06T01:48:13.211Z,75.17
2023-03-06T01:49:13.680Z,74.93
2023-03-06T01:50:04.058Z,75.54
2023-03-06T01:50:51.765Z,74.95
2023-03-06T01:51:51.798Z,75.05
2023-03-06T01:52:58.897Z,74.43
2023-03-06T01:53:46.643Z,76.79
2023-03-06T01:54:37.934Z,76.62
2023-03-06T01:55:33.901Z,76.31
2023-03-06T01:56:21.276Z,75.94
2023-03-06T01:57:15.484Z,75.72
2023-03-06T01:58:06.169Z,75.41
2023-03-06T01:58:52.884Z,75.35
2023-03-06T01:59:41.177Z,75.18
2023-03-06T02:00:29.252Z,74.91
2023-03-06T02:01:16.629Z,74.87
2023-03-06T02:02:04.601Z,74.54
2023-03-06T02:02:57.679Z,75.50
2023-03-06T02:03:47.548Z,74.26
2023-03-06T02:04:35.857Z,74.29
2023-03-06T02:05:22.972Z,74.21
2023-03-06T02:06:10.018Z,74.33
2023-03-06T02:07:02.274Z,75.28
2023-03-06T02:07:50.876Z,74.81
2023-03-06T02:08:37.829Z,74.84
2023-03-06T02:09:26.322Z,74.35
2023-03-06T02:10:13.606Z,75.33
2023-03-06T02:11:17.325Z,74.66
2023-03-06T02:12:12.243Z,74.46
2023-03-06T02:12:59.353Z,75.01
2023-03-06T02:13:46.974Z,75.20
2023-03-06T02:14:33.998Z,75.40
2023-03-06T02:15:23.039Z,76.52
2023-03-06T02:16:11.120Z,76.09
2023-03-06T02:16:58.235Z,76.10
2023-03-06T02:17:46.622Z,76.31
2023-03-06T02:18:34.680Z,77.05
2023-03-06T02:19:33.592Z,77.11
2023-03-06T02:20:32.101Z,77.71
2023-03-06T02:21:24.135Z,77.73
2023-03-06T02:22:11.255Z,77.22
2023-03-06T02:23:11.772Z,77.36
2023-03-06T02:24:17.369Z,77.37
2023-03-06T02:25:30.348Z,77.30
2023-03-06T02:26:17.543Z,77.12
2023-03-06T02:27:06.001Z,77.02
2023-03-06T02:27:53.003Z,77.67
2023-03-06T02:28:40.312Z,77.79
2023-03-06T02:29:29.198Z,77.71
2023-03-06T02:30:17.606Z,77.56
2023-03-06T02:31:04.702Z,77.54
2023-03-06T02:31:51.823Z,77.65
2023-03-06T02:32:38.851Z,78.04
2023-03-06T02:33:28.900Z,77.66
2023-03-06T02:34:15.772Z,77.34
2023-03-06T02:35:02.772Z,77.74
2023-03-06T02:36:07.280Z,77.76
2023-03-06T02:37:09.043Z,78.01
2023-03-06T02:37:58.116Z,78.59
2023-03-06T02:38:49.372Z,78.69
2023-03-06T02:39:41.121Z,78.96
2023-03-06T02:40:28.435Z,79.92
2023-03-06T02:41:16.252Z,78.34
2023-03-06T02:42:03.282Z,78.92
2023-03-06T02:42:56.730Z,79.32
2023-03-06T02:43:45.986Z,79.38
2023-03-06T02:44:34.239Z,79.23
2023-03-06T02:45:26.295Z,78.80
2023-03-06T02:46:13.483Z,78.35
2023-03-06T02:47:00.734Z,78.61
2023-03-06T02:47:47.727Z,79.25
2023-03-06T02:48:34.960Z,79.37
2023-03-06T02:49:21.864Z,79.51
2023-03-06T02:50:10.284Z,80.38
2023-03-06T02:50:57.469Z,80.53
2023-03-06T02:51:44.877Z,80.40
2023-03-06T02:52:31.842Z,80.08
2023-03-06T02:53:20.723Z,79.85
2023-03-06T02:54:07.730Z,78.54
2023-03-06T02:54:54.715Z,79.89
2023-03-06T02:55:41.790Z,79.98
2023-03-06T02:56:28.714Z,79.59
2023-03-06T02:57:15.797Z,79.13
2023-03-06T02:58:03.830Z,78.67
2023-03-06T02:58:50.837Z,78.46
2023-03-06T02:59:37.886Z,77.97
2023-03-06T03:00:25.008Z,77.67
2023-03-06T03:01:12.077Z,78.45
2023-03-06T03:01:59.275Z,78.28
2023-03-06T03:02:46.203Z,77.94
2023-03-06T03:03:33.669Z,77.28
2023-03-06T03:04:20.754Z,77.25
2023-03-06T03:05:08.170Z,77.88
2023-03-06T03:05:55.187Z,78.06
2023-03-06T03:06:42.177Z,77.95
2023-03-06T03:07:29.120Z,77.61
2023-03-06T03:08:16.375Z,78.50
2023-03-06T03:09:03.511Z,77.81
2023-03-06T03:09:50.590Z,77.86
2023-03-06T03:10:37.592Z,78.82
2023-03-06T03:11:24.646Z,78.61
2023-03-06T03:12:11.591Z,78.61
2023-03-06T03:12:58.951Z,78.25
2023-03-06T03:13:45.910Z,77.88
2023-03-06T03:14:33.010Z,77.60
2023-03-06T03:15:20.001Z,78.29
2023-03-06T03:16:09.378Z,78.16
2023-03-06T03:16:56.426Z,76.96
2023-03-06T03:17:43.832Z,78.48
2023-03-06T03:18:30.920Z,78.61
2023-03-06T03:19:17.971Z,78.70
2023-03-06T03:20:06.997Z,79.36
2023-03-06T03:20:54.424Z,78.83
2023-03-06T03:21:41.815Z,78.65
2023-03-06T03:22:28.885Z,78.27
2023-03-06T03:23:15.835Z,78.02
2023-03-06T03:24:02.802Z,79.17
2023-03-06T03:24:50.165Z,78.15
2023-03-06T03:25:37.276Z,77.12
2023-03-06T03:26:24.238Z,76.05
2023-03-06T03:27:11.615Z,75.30
2023-03-06T03:27:58.634Z,75.09
2023-03-06T03:28:45.841Z,75.70
2023-03-06T03:29:33.062Z,76.78
2023-03-06T03:30:20.238Z,77.52
2023-03-06T03:31:09.035Z,78.28
2023-03-06T03:31:56.188Z,78.05
2023-03-06T03:32:43.449Z,78.50
2023-03-06T03:33:30.555Z,78.50
2023-03-06T03:34:19.167Z,79.42
2023-03-06T03:35:08.021Z,78.44
2023-03-06T03:35:59.203Z,78.26
2023-03-06T03:36:47.041Z,78.63
2023-03-06T03:37:35.124Z,79.32
2023-03-06T03:38:22.174Z,79.81
2023-03-06T03:39:09.299Z,79.79
2023-03-06T03:39:57.847Z,80.03
2023-03-06T03:40:44.905Z,79.67
2023-03-06T03:41:34.360Z,79.32
2023-03-06T03:42:21.391Z,79.90
2023-03-06T03:43:08.286Z,80.10
2023-03-06T03:43:55.342Z,80.67
2023-03-06T03:44:42.368Z,80.39
2023-03-06T03:45:29.321Z,80.40
2023-03-06T03:46:16.301Z,80.44
2023-03-06T03:47:03.339Z,80.59
2023-03-06T03:47:50.398Z,80.99
2023-03-06T03:48:37.354Z,81.42
2023-03-06T03:49:24.421Z,81.01
2023-03-06T03:50:12.047Z,81.24
2023-03-06T03:51:08.929Z,81.63
2023-03-06T03:51:55.980Z,83.38
2023-03-06T03:52:42.990Z,83.06
2023-03-06T03:53:30.091Z,83.02
2023-03-06T03:54:17.308Z,82.91
2023-03-06T03:55:05.385Z,83.64
2023-03-06T03:55:52.477Z,84.55
2023-03-06T03:56:40.950Z,85.40
2023-03-06T03:57:27.925Z,85.10
2023-03-06T03:58:14.795Z,84.47
2023-03-06T03:59:01.848Z,84.87
2023-03-06T03:59:48.936Z,84.83
2023-03-06T04:00:35.876Z,84.60
2023-03-06T04:01:22.978Z,85.32
2023-03-06T04:02:09.943Z,85.06
2023-03-06T04:02:57.084Z,84.48
2023-03-06T04:03:44.157Z,83.93
2023-03-06T04:04:31.318Z,83.90
2023-03-06T04:05:18.720Z,84.37
2023-03-06T04:06:06.002Z,85.10
2023-03-06T04:06:52.966Z,85.89
2023-03-06T04:07:39.917Z,86.39
2023-03-06T04:08:27.577Z,85.81
2023-03-06T04:09:14.634Z,86.06
2023-03-06T04:10:01.688Z,86.36
2023-03-06T04:10:48.681Z,86.26
2023-03-06T04:11:35.732Z,87.13
2023-03-06T04:12:22.737Z,87.79
2023-03-06T04:13:10.260Z,87.27
2023-03-06T04:13:57.625Z,86.93
2023-03-06T04:14:44.726Z,86.79
2023-03-06T04:15:32.437Z,87.32
2023-03-06T04:16:19.510Z,87.71
2023-03-06T04:17:06.504Z,87.79
2023-03-06T04:17:53.520Z,87.62
2023-03-06T04:18:40.605Z,86.59
2023-03-06T04:19:28.056Z,86.12
2023-03-06T04:20:15.193Z,86.89
2023-03-06T04:21:02.308Z,88.09
2023-03-06T04:21:49.414Z,88.19
2023-03-06T04:22:36.394Z,87.96
2023-03-06T04:23:24.564Z,87.12
2023-03-06T04:24:11.586Z,87.13
2023-03-06T04:24:58.505Z,88.34
2023-03-06T04:25:46.234Z,87.85
2023-03-06T04:26:33.365Z,87.05
2023-03-06T04:27:20.360Z,86.71
2023-03-06T04:28:07.699Z,86.75
2023-03-06T04:28:56.384Z,86.77
2023-03-06T04:29:43.569Z,86.90
2023-03-06T04:30:30.727Z,87.11
2023-03-06T04:31:17.748Z,86.94
2023-03-06T04:32:05.099Z,87.00
2023-03-06T04:32:52.148Z,86.82
2023-03-06T04:33:39.456Z,86.87
2023-03-06T04:34:26.489Z,87.48
2023-03-06T04:35:13.519Z,87.93
2023-03-06T04:36:00.455Z,88.69
2023-03-06T04:36:47.676Z,90.06
2023-03-06T04:37:34.788Z,90.43
2023-03-06T04:38:21.822Z,90.13
2023-03-06T04:39:08.866Z,89.82
2023-03-06T04:39:55.827Z,89.35
2023-03-06T04:40:44.814Z,88.75
2023-03-06T04:41:32.142Z,88.52
2023-03-06T04:42:19.438Z,88.46
2023-03-06T04:43:06.751Z,88.40
2023-03-06T04:43:54.004Z,88.39
2023-03-06T04:44:40.971Z,88.55
2023-03-06T04:45:29.155Z,88.99
2023-03-06T04:46:16.659Z,90.14
2023-03-06T04:47:03.679Z,90.05
2023-03-06T04:47:50.723Z,90.23
2023-03-06T04:48:37.823Z,89.97
2023-03-06T04:49:24.799Z,89.60
2023-03-06T04:50:12.538Z,89.14
2023-03-06T04:50:59.494Z,89.90
2023-03-06T04:51:46.478Z,90.37
2023-03-06T04:52:33.917Z,90.67
2023-03-06T04:53:22.017Z,90.48
2023-03-06T04:54:09.025Z,90.04
2023-03-06T04:54:56.168Z,90.76
2023-03-06T04:55:43.222Z,90.12
2023-03-06T04:56:30.890Z,89.80
2023-03-06T04:57:18.005Z,89.38
2023-03-06T04:58:05.040Z,89.20
2023-03-06T04:58:52.103Z,89.35
2023-03-06T04:59:39.330Z,89.37
2023-03-06T05:00:36.478Z,89.54
2023-03-06T05:01:23.512Z,89.90
2023-03-06T05:02:10.547Z,89.56
2023-03-06T05:03:01.803Z,89.71
2023-03-06T05:03:50.021Z,89.77
2023-03-06T05:04:37.068Z,91.20
2023-03-06T05:05:24.148Z,91.85
2023-03-06T05:06:11.197Z,91.38
2023-03-06T05:06:58.189Z,90.31
2023-03-06T05:07:45.493Z,89.80
2023-03-06T05:08:32.521Z,89.50
2023-03-06T05:09:19.459Z,89.26
2023-03-06T05:10:07.268Z,89.53
2023-03-06T05:10:57.063Z,89.76
2023-03-06T05:11:43.992Z,89.80
2023-03-06T05:12:31.195Z,89.73
2023-03-06T05:13:18.243Z,89.23
2023-03-06T05:14:05.256Z,89.31
2023-03-06T05:14:52.434Z,89.36
2023-03-06T05:15:42.356Z,89.09
2023-03-06T05:16:29.449Z,88.99
2023-03-06T05:17:16.419Z,89.00
2023-03-06T05:18:03.698Z,88.94
2023-03-06T05:18:50.881Z,88.99
2023-03-06T05:19:38.006Z,89.04
2023-03-06T05:20:25.184Z,88.97
2023-03-06T05:21:12.393Z,88.98
2023-03-06T05:21:59.485Z,89.30
2023-03-06T05:22:46.501Z,90.80
2023-03-06T05:23:36.998Z,90.94
2023-03-06T05:24:24.055Z,91.20
2023-03-06T05:25:11.500Z,90.89
2023-03-06T05:25:58.732Z,90.51
2023-03-06T05:26:45.698Z,90.06
2023-03-06T05:27:32.822Z,89.83
2023-03-06T05:28:19.927Z,89.54
2023-03-06T05:29:07.242Z,89.81
2023-03-06T05:29:54.879Z,89.45
2023-03-06T05:30:41.844Z,89.10
2023-03-06T05:31:29.130Z,88.90
2023-03-06T05:32:17.250Z,88.58
2023-03-06T05:33:04.458Z,88.56
2023-03-06T05:33:51.830Z,88.00
2023-03-06T05:34:40.043Z,89.27
2023-03-06T05:35:27.227Z,89.49
2023-03-06T05:36:14.685Z,89.69
2023-03-06T05:37:02.097Z,90.03
2023-03-06T05:37:49.145Z,90.11
2023-03-06T05:38:36.333Z,90.07
2023-03-06T05:39:23.428Z,89.83
2023-03-06T05:40:11.522Z,89.75
2023-03-06T05:40:58.559Z,89.36
2023-03-06T05:41:45.603Z,90.28
2023-03-06T05:42:32.569Z,91.33
2023-03-06T05:43:20.020Z,91.32
2023-03-06T05:44:07.287Z,89.96
2023-03-06T05:44:54.324Z,90.57
2023-03-06T05:45:41.423Z,90.02
2023-03-06T05:46:28.424Z,89.60
2023-03-06T05:47:15.436Z,89.77
2023-03-06T05:48:02.689Z,89.99
2023-03-06T05:48:50.634Z,89.92
2023-03-06T05:49:38.085Z,89.48
2023-03-06T05:50:25.216Z,89.10
2023-03-06T05:51:12.333Z,89.11
2023-03-06T05:51:59.412Z,88.67
2023-03-06T05:52:46.424Z,88.41
2023-03-06T05:53:33.714Z,88.31
2023-03-06T05:54:21.535Z,88.41
2023-03-06T05:55:10.574Z,88.60
2023-03-06T05:55:59.160Z,88.62
2023-03-06T05:56:46.186Z,88.73
2023-03-06T05:57:33.251Z,88.73
2023-03-06T05:58:20.318Z,88.84
2023-03-06T05:59:07.367Z,88.82
2023-03-06T05:59:54.496Z,88.67
2023-03-06T06:00:41.672Z,88.19
2023-03-06T06:01:28.789Z,88.99
2023-03-06T06:02:16.556Z,89.13
2023-03-06T06:03:05.033Z,89.07
2023-03-06T06:03:52.419Z,89.12
2023-03-06T06:04:39.483Z,89.45
2023-03-06T06:05:26.473Z,89.34
2023-03-06T06:06:14.849Z,89.22
2023-03-06T06:07:01.930Z,89.55
2023-03-06T06:07:48.989Z,89.42
2023-03-06T06:08:36.010Z,89.26
2023-03-06T06:09:24.242Z,89.19
2023-03-06T06:10:12.326Z,89.10
2023-03-06T06:10:59.354Z,89.01
2023-03-06T06:11:46.488Z,89.25
2023-03-06T06:12:33.784Z,89.06
2023-03-06T06:13:20.740Z,88.80
2023-03-06T06:14:07.696Z,88.75
2023-03-06T06:14:54.818Z,88.50
2023-03-06T06:15:41.940Z,88.61
2023-03-06T06:16:28.955Z,90.42
2023-03-06T06:17:16.969Z,90.56
2023-03-06T06:18:04.161Z,90.70
2023-03-06T06:18:51.147Z,90.30
2023-03-06T06:19:38.456Z,90.74
2023-03-06T06:21:14.799Z,90.73
2023-03-06T06:22:04.984Z,89.82
2023-03-06T06:22:51.994Z,89.90
2023-03-06T06:23:38.913Z,90.17
2023-03-06T06:24:27.289Z,90.50
2023-03-06T06:25:14.361Z,90.16
2023-03-06T06:26:05.684Z,89.61
2023-03-06T06:26:54.954Z,89.33
2023-03-06T06:27:42.074Z,89.18
2023-03-06T06:28:29.888Z,89.32
2023-03-06T06:29:17.042Z,89.30
2023-03-06T06:30:05.711Z,89.09
2023-03-06T06:30:53.127Z,89.17
2023-03-06T06:31:40.553Z,89.32
2023-03-06T06:32:27.741Z,88.98
2023-03-06T06:33:14.722Z,88.50
2023-03-06T06:34:01.674Z,87.66
2023-03-06T06:34:48.659Z,88.39
2023-03-06T06:35:37.427Z,89.22
2023-03-06T06:36:24.499Z,88.87
2023-03-06T06:37:11.960Z,88.55
2023-03-06T06:37:59.073Z,88.72
2023-03-06T06:38:46.760Z,88.61
2023-03-06T06:39:34.654Z,88.73
2023-03-06T06:40:24.521Z,88.69
2023-03-06T06:41:38.897Z,88.55
2023-03-06T06:42:31.990Z,88.40
2023-03-06T06:43:22.204Z,87.71
2023-03-06T06:44:14.666Z,87.89
2023-03-06T06:45:01.673Z,88.01
2023-03-06T06:45:49.623Z,88.12
2023-03-06T06:47:20.929Z,88.32
2023-03-06T06:47:44.805Z,88.18
2023-03-06T06:48:31.943Z,87.94
2023-03-06T06:49:19.042Z,88.07
2023-03-06T06:50:06.693Z,88.00
2023-03-06T06:51:00.332Z,87.72
2023-03-06T06:51:47.511Z,87.63
2023-03-06T06:52:34.703Z,88.21
2023-03-06T06:53:21.706Z,88.31
2023-03-06T06:54:08.981Z,88.26
2023-03-06T06:54:56.058Z,87.86
2023-03-06T06:55:43.308Z,87.58
2023-03-06T06:56:30.429Z,87.31
2023-03-06T06:57:17.673Z,87.13
2023-03-06T06:58:04.807Z,86.85
2023-03-06T06:59:01.352Z,86.78
2023-03-06T06:59:57.360Z,86.98
2023-03-06T07:00:44.478Z,86.60
2023-03-06T07:01:31.567Z,86.76
2023-03-06T07:02:18.791Z,86.21
2023-03-06T07:03:05.834Z,86.46
2023-03-06T07:03:53.056Z,86.12
2023-03-06T07:04:52.214Z,86.28
2023-03-06T07:05:43.523Z,86.17
2023-03-06T07:06:30.758Z,86.22
2023-03-06T07:07:17.844Z,87.36
2023-03-06T07:08:04.876Z,86.79
2023-03-06T07:08:52.168Z,86.90
2023-03-06T07:09:40.395Z,87.14
2023-03-06T07:10:27.356Z,86.95
2023-03-06T07:11:17.754Z,86.79
2023-03-06T07:12:04.889Z,86.60
2023-03-06T07:12:51.767Z,86.94
2023-03-06T07:13:38.853Z,87.19
2023-03-06T07:14:25.916Z,86.96
2023-03-06T07:15:15.274Z,86.82
2023-03-06T07:16:02.512Z,86.93
2023-03-06T07:16:49.495Z,87.10
2023-03-06T07:17:36.502Z,87.73
2023-03-06T07:18:23.393Z,88.74
2023-03-06T07:19:10.335Z,89.29
2023-03-06T07:19:57.373Z,89.28
2023-03-06T07:20:44.263Z,88.29
2023-03-06T07:21:31.250Z,87.80
2023-03-06T07:22:18.148Z,87.98
2023-03-06T07:23:08.614Z,88.05
2023-03-06T07:23:57.697Z,86.45
2023-03-06T07:24:44.647Z,84.34
2023-03-06T07:25:31.586Z,83.85
2023-03-06T07:26:18.482Z,84.44
2023-03-06T07:27:05.437Z,83.10
2023-03-06T07:27:54.591Z,81.66
2023-03-06T07:28:52.438Z,80.36
2023-03-06T07:29:39.698Z,81.81
2023-03-06T07:30:26.558Z,81.67
2023-03-06T07:31:13.528Z,81.51
2023-03-06T07:32:00.643Z,78.15
2023-03-06T07:32:47.650Z,78.47
2023-03-06T07:33:34.570Z,78.66
2023-03-06T07:34:21.493Z,78.40
2023-03-06T07:35:19.817Z,79.17
2023-03-06T07:36:12.744Z,80.02
2023-03-06T07:36:59.795Z,78.40
2023-03-06T07:37:46.779Z,78.26
2023-03-06T07:38:33.872Z,78.45
2023-03-06T07:39:20.809Z,79.10
2023-03-06T07:40:09.718Z,78.46
2023-03-06T07:40:56.551Z,78.16
2023-03-06T07:41:43.443Z,77.35
2023-03-06T07:42:30.318Z,78.62
2023-03-06T07:43:19.610Z,79.33
2023-03-06T07:44:07.654Z,78.84
2023-03-06T07:44:54.559Z,78.22
2023-03-06T07:45:43.478Z,77.81
2023-03-06T07:46:30.491Z,78.06
2023-03-06T07:47:17.396Z,78.40
2023-03-06T07:48:05.622Z,78.82
2023-03-06T07:48:53.412Z,77.53
2023-03-06T07:49:40.346Z,77.68
2023-03-06T07:50:27.341Z,77.23
2023-03-06T07:51:16.724Z,75.33
2023-03-06T07:52:03.799Z,77.03
2023-03-06T07:52:51.450Z,77.08
2023-03-06T07:53:38.400Z,76.34
2023-03-06T07:54:25.517Z,76.60
2023-03-06T07:55:13.042Z,76.99
2023-03-06T07:56:00.134Z,75.76
2023-03-06T07:56:50.704Z,77.03
2023-03-06T07:57:38.692Z,77.25
2023-03-06T07:58:26.442Z,77.00
2023-03-06T07:59:13.330Z,76.45
2023-03-06T08:00:00.259Z,76.16
2023-03-06T08:00:47.416Z,76.90
2023-03-06T08:01:34.363Z,75.72
2023-03-06T08:02:23.362Z,76.06
2023-03-06T08:03:12.046Z,74.86
2023-03-06T08:03:59.644Z,73.71
2023-03-06T08:04:53.681Z,75.77
2023-03-06T08:05:40.964Z,74.72
2023-03-06T08:06:28.598Z,73.98
2023-03-06T08:07:15.532Z,74.12
2023-03-06T08:08:02.442Z,72.91
2023-03-06T08:08:50.578Z,71.55
2023-03-06T08:09:37.444Z,73.28
2023-03-06T08:10:24.315Z,72.98
2023-03-06T08:11:12.890Z,72.75
2023-03-06T08:11:59.784Z,73.44
2023-03-06T08:12:46.724Z,73.19
2023-03-06T08:13:35.756Z,74.20
2023-03-06T08:14:22.796Z,74.42
2023-03-06T08:15:11.613Z,75.57
2023-03-06T08:16:00.001Z,76.15
2023-03-06T08:16:47.038Z,75.44
2023-03-06T08:17:33.926Z,75.11
2023-03-06T08:18:20.793Z,73.81
2023-03-06T08:19:07.898Z,73.76
2023-03-06T08:19:54.783Z,74.13
2023-03-06T08:20:41.670Z,73.23
2023-03-06T08:21:29.355Z,72.17
2023-03-06T08:22:16.257Z,74.50
2023-03-06T08:23:03.093Z,75.78
2023-03-06T08:23:50.818Z,75.07
2023-03-06T08:24:38.056Z,75.86
2023-03-06T08:25:25.857Z,74.36
2023-03-06T08:26:15.743Z,75.52
2023-03-06T08:27:02.754Z,75.98
2023-03-06T08:27:49.774Z,74.84
2023-03-06T08:28:36.653Z,74.83
2023-03-06T08:29:23.516Z,75.02
2023-03-06T08:30:11.062Z,72.70
2023-03-06T08:30:58.681Z,72.94
2023-03-06T08:31:46.612Z,73.19
2023-03-06T08:32:38.762Z,72.93
2023-03-06T08:33:25.831Z,73.93
2023-03-06T08:34:15.404Z,74.31
2023-03-06T08:35:04.086Z,74.22
2023-03-06T08:35:51.442Z,73.73
2023-03-06T08:36:38.805Z,73.42
2023-03-06T08:37:25.816Z,73.63
2023-03-06T08:38:12.701Z,74.12
2023-03-06T08:38:59.977Z,74.58
2023-03-06T08:39:46.897Z,75.59
2023-03-06T08:40:34.020Z,74.60
2023-03-06T08:41:21.615Z,74.44
2023-03-06T08:42:10.476Z,73.92
2023-03-06T08:42:57.897Z,73.69
2023-03-06T08:43:44.912Z,73.54
2023-03-06T08:44:31.842Z,74.29
2023-03-06T08:45:18.723Z,73.79
2023-03-06T08:46:05.751Z,73.51
2023-03-06T08:46:54.827Z,74.66
2023-03-06T08:47:41.733Z,74.28
2023-03-06T08:48:28.638Z,75.83
2023-03-06T08:49:15.608Z,76.35
2023-03-06T08:50:02.555Z,76.33
2023-03-06T08:50:49.654Z,74.81
2023-03-06T08:51:36.633Z,73.80
2023-03-06T08:52:23.509Z,73.41
2023-03-06T08:53:10.881Z,73.66
2023-03-06T08:53:58.290Z,74.58
2023-03-06T08:54:45.206Z,73.00
2023-03-06T08:55:32.050Z,72.52
2023-03-06T08:56:20.273Z,73.52
2023-03-06T08:57:07.206Z,74.44
2023-03-06T08:57:54.572Z,76.29
2023-03-06T08:58:41.409Z,76.99
2023-03-06T08:59:28.281Z,74.72
2023-03-06T09:00:15.605Z,74.59
2023-03-06T09:01:05.532Z,73.79
2023-03-06T09:01:52.601Z,72.73
2023-03-06T09:02:40.035Z,73.09
2023-03-06T09:03:27.082Z,72.85
2023-03-06T09:04:14.237Z,72.24
2023-03-06T09:05:01.635Z,71.92
2023-03-06T09:05:48.757Z,71.68
2023-03-06T09:06:38.760Z,71.69
2023-03-06T09:07:25.806Z,71.27
2023-03-06T09:08:12.761Z,72.00
2023-03-06T09:09:00.017Z,72.44
2023-03-06T09:09:46.974Z,71.97
2023-03-06T09:10:34.411Z,72.38
2023-03-06T09:11:23.029Z,71.55
2023-03-06T09:12:09.912Z,72.11
2023-03-06T09:12:56.935Z,72.10
2023-03-06T09:13:44.198Z,71.37
2023-03-06T09:14:32.995Z,71.89
2023-03-06T09:15:21.159Z,72.18
2023-03-06T09:16:09.799Z,72.71
2023-03-06T09:16:56.754Z,71.96
2023-03-06T09:17:43.790Z,71.59
2023-03-06T09:18:30.850Z,71.45
2023-03-06T09:19:18.034Z,70.54
2023-03-06T09:20:10.560Z,69.58
2023-03-06T09:20:57.600Z,68.68
2023-03-06T09:21:44.610Z,68.87
2023-03-06T09:22:32.321Z,69.09
2023-03-06T09:23:19.251Z,69.59
2023-03-06T09:24:06.421Z,68.82
2023-03-06T09:24:54.286Z,69.38
2023-03-06T09:25:41.197Z,69.05
2023-03-06T09:26:43.331Z,69.90
2023-03-06T09:27:31.945Z,68.85
2023-03-06T09:28:18.828Z,69.48
2023-03-06T09:29:05.654Z,68.18
2023-03-06T09:29:52.470Z,67.98
2023-03-06T09:30:41.235Z,67.78
2023-03-06T09:31:28.597Z,69.87
2023-03-06T09:32:15.528Z,67.98
2023-03-06T09:33:02.468Z,68.65
2023-03-06T09:33:49.392Z,68.00
2023-03-06T09:34:36.294Z,69.25
2023-03-06T09:35:23.359Z,67.85
2023-03-06T09:36:17.314Z,67.64
2023-03-06T09:37:04.255Z,66.80
2023-03-06T09:37:51.154Z,66.40
2023-03-06T09:38:38.023Z,65.35
2023-03-06T09:39:26.387Z,66.32
2023-03-06T09:40:30.906Z,66.40
2023-03-06T09:41:31.147Z,66.65
2023-03-06T09:42:20.799Z,66.46
2023-03-06T09:43:13.834Z,66.62
2023-03-06T09:44:05.179Z,64.82
2023-03-06T09:44:55.513Z,63.89
2023-03-06T09:45:42.536Z,65.09
2023-03-06T09:46:40.617Z,65.38
2023-03-06T09:47:42.777Z,64.85
2023-03-06T09:48:44.538Z,64.55
2023-03-06T09:49:50.519Z,65.12
2023-03-06T09:50:40.173Z,64.77
2023-03-06T09:51:45.413Z,64.70
2023-03-06T09:52:35.317Z,64.56
2023-03-06T09:53:28.413Z,63.77
2023-03-06T09:54:16.256Z,63.68
2023-03-06T09:55:09.850Z,64.51
2023-03-06T09:56:06.525Z,64.71
2023-03-06T09:56:53.474Z,65.24
2023-03-06T09:57:55.329Z,66.97
2023-03-06T09:58:48.304Z,66.32
2023-03-06T09:59:35.303Z,66.23
2023-03-06T10:00:31.274Z,65.77
2023-03-06T10:01:28.226Z,67.11
2023-03-06T10:02:32.179Z,67.35
2023-03-06T10:03:34.312Z,68.03
2023-03-06T10:04:38.534Z,68.20
2023-03-06T10:05:35.958Z,67.95
2023-03-06T10:06:27.204Z,66.94
2023-03-06T10:07:19.316Z,68.46
2023-03-06T10:08:21.934Z,70.30
2023-03-06T10:09:19.307Z,69.73
2023-03-06T10:10:08.490Z,69.13
2023-03-06T10:11:02.172Z,68.20
2023-03-06T10:11:55.199Z,66.79
2023-03-06T10:12:48.510Z,66.11
2023-03-06T10:13:44.516Z,66.30
2023-03-06T10:14:57.111Z,65.76
2023-03-06T10:15:46.603Z,64.79
2023-03-06T10:16:33.682Z,66.68
2023-03-06T10:17:22.771Z,66.42
2023-03-06T10:18:11.297Z,67.04
2023-03-06T10:19:03.619Z,66.52
2023-03-06T10:19:50.998Z,66.30
2023-03-06T10:20:44.491Z,66.73
2023-03-06T10:21:45.871Z,67.18
2023-03-06T10:22:39.086Z,66.56
2023-03-06T10:23:54.889Z,68.07
2023-03-06T10:24:49.562Z,69.13
2023-03-06T10:26:02.240Z,67.80
2023-03-06T10:27:37.836Z,67.63